sensor_id;sensor_type;location;lat;lon;timestamp;P1;durP1;ratioP1;P2;durP2;ratioP2
80481;SDS011;69797;43.864;21.410;2023-12-20T00:01:57;19.77;;;11.40;;
80481;SDS011;69797;43.864;21.410;2023-12-20T00:04:23;18.27;;;13.20;;
80481;SDS011;69797;43.864;21.410;2023-12-20T00:06:50;20.77;;;13.63;;
80481;SDS011;69797;43.864;21.410;2023-12-20T00:09:18;23.33;;;14.23;;
80481;SDS011;69797;43.864;21.410;2023-12-20T00:11:45;24.15;;;13.95;;
80481;SDS011;69797;43.864;21.410;2023-12-20T00:14:12;27.95;;;14.80;;
80481;SDS011;69797;43.864;21.410;2023-12-20T00:16:39;23.20;;;13.70;;
80481;SDS011;69797;43.864;21.410;2023-12-20T00:19:06;23.95;;;12.63;;
80481;SDS011;69797;43.864;21.410;2023-12-20T00:21:34;18.00;;;11.20;;
80481;SDS011;69797;43.864;21.410;2023-12-20T00:24:01;22.60;;;13.98;;
80481;SDS011;69797;43.864;21.410;2023-12-20T00:26:28;17.40;;;13.07;;
80481;SDS011;69797;43.864;21.410;2023-12-20T00:28:55;20.92;;;14.45;;
80481;SDS011;69797;43.864;21.410;2023-12-20T00:31:21;25.63;;;13.68;;
80481;SDS011;69797;43.864;21.410;2023-12-20T00:33:48;25.70;;;15.17;;
80481;SDS011;69797;43.864;21.410;2023-12-20T00:36:15;20.67;;;14.00;;
80481;SDS011;69797;43.864;21.410;2023-12-20T00:38:42;21.83;;;13.95;;
80481;SDS011;69797;43.864;21.410;2023-12-20T00:41:09;20.95;;;12.82;;
80481;SDS011;69797;43.864;21.410;2023-12-20T00:43:36;20.17;;;12.70;;
80481;SDS011;69797;43.864;21.410;2023-12-20T00:46:02;17.57;;;13.07;;
80481;SDS011;69797;43.864;21.410;2023-12-20T00:48:29;23.08;;;13.52;;
80481;SDS011;69797;43.864;21.410;2023-12-20T00:50:59;20.38;;;12.10;;
80481;SDS011;69797;43.864;21.410;2023-12-20T00:53:26;19.27;;;12.38;;
80481;SDS011;69797;43.864;21.410;2023-12-20T00:55:52;19.85;;;11.27;;
80481;SDS011;69797;43.864;21.410;2023-12-20T00:58:19;17.10;;;10.93;;
80481;SDS011;69797;43.864;21.410;2023-12-20T01:00:46;14.45;;;9.30;;
80481;SDS011;69797;43.864;21.410;2023-12-20T01:03:13;18.27;;;10.80;;
80481;SDS011;69797;43.864;21.410;2023-12-20T01:05:41;16.02;;;9.93;;
80481;SDS011;69797;43.864;21.410;2023-12-20T01:08:08;14.55;;;9.57;;
80481;SDS011;69797;43.864;21.410;2023-12-20T01:10:35;16.77;;;11.07;;
80481;SDS011;69797;43.864;21.410;2023-12-20T01:13:02;19.48;;;12.15;;
80481;SDS011;69797;43.864;21.410;2023-12-20T01:15:29;18.98;;;12.35;;
80481;SDS011;69797;43.864;21.410;2023-12-20T01:17:56;17.80;;;11.60;;
80481;SDS011;69797;43.864;21.410;2023-12-20T01:20:25;20.33;;;11.68;;
80481;SDS011;69797;43.864;21.410;2023-12-20T01:22:52;16.07;;;11.83;;
80481;SDS011;69797;43.864;21.410;2023-12-20T01:25:19;20.70;;;11.60;;
80481;SDS011;69797;43.864;21.410;2023-12-20T01:27:46;20.48;;;12.55;;
80481;SDS011;69797;43.864;21.410;2023-12-20T01:30:14;16.67;;;11.48;;
80481;SDS011;69797;43.864;21.410;2023-12-20T01:32:41;20.95;;;12.10;;
80481;SDS011;69797;43.864;21.410;2023-12-20T01:35:08;24.00;;;10.47;;
80481;SDS011;69797;43.864;21.410;2023-12-20T01:37:35;17.90;;;11.30;;
80481;SDS011;69797;43.864;21.410;2023-12-20T01:40:02;18.95;;;12.18;;
80481;SDS011;69797;43.864;21.410;2023-12-20T01:42:29;21.23;;;13.02;;
80481;SDS011;69797;43.864;21.410;2023-12-20T01:44:56;13.07;;;10.05;;
80481;SDS011;69797;43.864;21.410;2023-12-20T01:47:22;21.30;;;13.60;;
80481;SDS011;69797;43.864;21.410;2023-12-20T01:49:49;21.25;;;12.50;;
80481;SDS011;69797;43.864;21.410;2023-12-20T01:52:17;21.70;;;13.88;;
80481;SDS011;69797;43.864;21.410;2023-12-20T01:54:45;23.20;;;14.70;;
80481;SDS011;69797;43.864;21.410;2023-12-20T01:57:13;26.88;;;14.70;;
80481;SDS011;69797;43.864;21.410;2023-12-20T01:59:41;23.83;;;14.47;;
80481;SDS011;69797;43.864;21.410;2023-12-20T02:02:07;18.35;;;12.63;;
80481;SDS011;69797;43.864;21.410;2023-12-20T02:04:35;17.33;;;12.27;;
80481;SDS011;69797;43.864;21.410;2023-12-20T02:07:02;20.45;;;14.85;;
80481;SDS011;69797;43.864;21.410;2023-12-20T02:09:30;22.40;;;10.93;;
80481;SDS011;69797;43.864;21.410;2023-12-20T02:11:56;16.13;;;11.50;;
80481;SDS011;69797;43.864;21.410;2023-12-20T02:14:23;19.50;;;13.43;;
80481;SDS011;69797;43.864;21.410;2023-12-20T02:16:51;20.02;;;11.88;;
80481;SDS011;69797;43.864;21.410;2023-12-20T02:19:18;25.67;;;11.40;;
80481;SDS011;69797;43.864;21.410;2023-12-20T02:21:46;15.40;;;9.18;;
80481;SDS011;69797;43.864;21.410;2023-12-20T02:24:13;14.37;;;10.37;;
80481;SDS011;69797;43.864;21.410;2023-12-20T02:26:40;14.10;;;11.35;;
80481;SDS011;69797;43.864;21.410;2023-12-20T02:29:12;16.88;;;11.05;;
80481;SDS011;69797;43.864;21.410;2023-12-20T02:31:38;18.17;;;11.25;;
80481;SDS011;69797;43.864;21.410;2023-12-20T02:34:05;15.18;;;9.98;;
80481;SDS011;69797;43.864;21.410;2023-12-20T02:36:32;10.00;;;6.43;;
80481;SDS011;69797;43.864;21.410;2023-12-20T02:38:59;12.57;;;9.93;;
80481;SDS011;69797;43.864;21.410;2023-12-20T02:41:26;14.00;;;11.20;;
80481;SDS011;69797;43.864;21.410;2023-12-20T02:43:53;22.65;;;11.85;;
80481;SDS011;69797;43.864;21.410;2023-12-20T02:46:19;12.48;;;8.18;;
80481;SDS011;69797;43.864;21.410;2023-12-20T02:48:46;17.67;;;8.17;;
80481;SDS011;69797;43.864;21.410;2023-12-20T02:51:14;19.02;;;11.57;;
80481;SDS011;69797;43.864;21.410;2023-12-20T02:53:40;14.05;;;9.63;;
80481;SDS011;69797;43.864;21.410;2023-12-20T02:56:07;9.35;;;8.05;;
80481;SDS011;69797;43.864;21.410;2023-12-20T02:58:34;17.00;;;11.23;;
80481;SDS011;69797;43.864;21.410;2023-12-20T03:01:01;12.33;;;9.67;;
80481;SDS011;69797;43.864;21.410;2023-12-20T03:03:28;16.23;;;8.55;;
80481;SDS011;69797;43.864;21.410;2023-12-20T03:05:54;9.52;;;7.20;;
80481;SDS011;69797;43.864;21.410;2023-12-20T03:08:21;11.75;;;8.52;;
80481;SDS011;69797;43.864;21.410;2023-12-20T03:10:48;13.90;;;10.73;;
80481;SDS011;69797;43.864;21.410;2023-12-20T03:13:15;12.20;;;8.77;;
80481;SDS011;69797;43.864;21.410;2023-12-20T03:15:42;10.55;;;8.38;;
80481;SDS011;69797;43.864;21.410;2023-12-20T03:18:09;12.77;;;8.32;;
80481;SDS011;69797;43.864;21.410;2023-12-20T03:20:35;14.23;;;9.68;;
80481;SDS011;69797;43.864;21.410;2023-12-20T03:23:03;13.70;;;7.65;;
80481;SDS011;69797;43.864;21.410;2023-12-20T03:25:30;9.83;;;6.93;;
80481;SDS011;69797;43.864;21.410;2023-12-20T03:27:57;17.77;;;10.20;;
80481;SDS011;69797;43.864;21.410;2023-12-20T03:30:23;14.25;;;8.85;;
80481;SDS011;69797;43.864;21.410;2023-12-20T03:32:51;16.85;;;9.73;;
80481;SDS011;69797;43.864;21.410;2023-12-20T03:35:17;15.68;;;10.82;;
80481;SDS011;69797;43.864;21.410;2023-12-20T03:37:44;18.27;;;9.53;;
80481;SDS011;69797;43.864;21.410;2023-12-20T03:40:11;9.90;;;8.05;;
80481;SDS011;69797;43.864;21.410;2023-12-20T03:42:38;15.38;;;10.40;;
80481;SDS011;69797;43.864;21.410;2023-12-20T03:45:05;20.48;;;12.63;;
80481;SDS011;69797;43.864;21.410;2023-12-20T03:47:32;23.40;;;11.38;;
80481;SDS011;69797;43.864;21.410;2023-12-20T03:49:59;16.50;;;11.03;;
80481;SDS011;69797;43.864;21.410;2023-12-20T03:52:26;14.25;;;8.27;;
80481;SDS011;69797;43.864;21.410;2023-12-20T03:54:53;24.35;;;10.82;;
80481;SDS011;69797;43.864;21.410;2023-12-20T03:57:20;18.30;;;9.38;;
80481;SDS011;69797;43.864;21.410;2023-12-20T03:59:46;24.35;;;12.73;;
80481;SDS011;69797;43.864;21.410;2023-12-20T04:02:13;9.67;;;8.73;;
80481;SDS011;69797;43.864;21.410;2023-12-20T04:04:40;16.83;;;11.10;;
80481;SDS011;69797;43.864;21.410;2023-12-20T04:07:07;18.13;;;12.35;;
80481;SDS011;69797;43.864;21.410;2023-12-20T04:09:34;17.98;;;12.63;;
80481;SDS011;69797;43.864;21.410;2023-12-20T04:12:00;18.40;;;13.43;;
80481;SDS011;69797;43.864;21.410;2023-12-20T04:14:27;16.83;;;10.67;;
80481;SDS011;69797;43.864;21.410;2023-12-20T04:16:54;19.33;;;10.55;;
80481;SDS011;69797;43.864;21.410;2023-12-20T04:19:21;14.52;;;10.02;;
80481;SDS011;69797;43.864;21.410;2023-12-20T04:21:48;11.13;;;7.45;;
80481;SDS011;69797;43.864;21.410;2023-12-20T04:24:15;10.90;;;7.03;;
80481;SDS011;69797;43.864;21.410;2023-12-20T04:26:41;16.37;;;11.43;;
80481;SDS011;69797;43.864;21.410;2023-12-20T04:29:08;20.33;;;12.55;;
80481;SDS011;69797;43.864;21.410;2023-12-20T04:31:35;10.05;;;8.23;;
80481;SDS011;69797;43.864;21.410;2023-12-20T04:34:02;20.45;;;11.43;;
80481;SDS011;69797;43.864;21.410;2023-12-20T04:36:29;17.17;;;11.32;;
80481;SDS011;69797;43.864;21.410;2023-12-20T04:38:56;22.30;;;13.37;;
80481;SDS011;69797;43.864;21.410;2023-12-20T04:41:23;24.33;;;11.50;;
80481;SDS011;69797;43.864;21.410;2023-12-20T04:43:50;17.20;;;11.18;;
80481;SDS011;69797;43.864;21.410;2023-12-20T04:46:17;24.73;;;12.93;;
80481;SDS011;69797;43.864;21.410;2023-12-20T04:48:44;21.25;;;12.45;;
80481;SDS011;69797;43.864;21.410;2023-12-20T04:51:11;13.83;;;10.20;;
80481;SDS011;69797;43.864;21.410;2023-12-20T04:53:38;12.63;;;8.63;;
80481;SDS011;69797;43.864;21.410;2023-12-20T04:56:04;8.77;;;6.30;;
80481;SDS011;69797;43.864;21.410;2023-12-20T04:58:31;12.10;;;8.20;;
80481;SDS011;69797;43.864;21.410;2023-12-20T05:00:58;10.93;;;7.80;;
80481;SDS011;69797;43.864;21.410;2023-12-20T05:03:25;11.00;;;8.43;;
80481;SDS011;69797;43.864;21.410;2023-12-20T05:05:52;11.32;;;8.52;;
80481;SDS011;69797;43.864;21.410;2023-12-20T05:08:19;9.57;;;6.93;;
80481;SDS011;69797;43.864;21.410;2023-12-20T05:10:46;14.43;;;9.30;;
80481;SDS011;69797;43.864;21.410;2023-12-20T05:13:13;13.80;;;8.80;;
80481;SDS011;69797;43.864;21.410;2023-12-20T05:15:40;8.77;;;6.43;;
80481;SDS011;69797;43.864;21.410;2023-12-20T05:18:07;16.42;;;9.55;;
80481;SDS011;69797;43.864;21.410;2023-12-20T05:20:34;12.93;;;8.98;;
80481;SDS011;69797;43.864;21.410;2023-12-20T05:23:01;9.10;;;7.45;;
80481;SDS011;69797;43.864;21.410;2023-12-20T05:25:27;9.52;;;6.40;;
80481;SDS011;69797;43.864;21.410;2023-12-20T05:27:54;8.83;;;7.77;;
80481;SDS011;69797;43.864;21.410;2023-12-20T05:30:22;13.85;;;7.93;;
80481;SDS011;69797;43.864;21.410;2023-12-20T05:32:49;17.75;;;6.82;;
80481;SDS011;69797;43.864;21.410;2023-12-20T05:35:16;9.60;;;5.90;;
80481;SDS011;69797;43.864;21.410;2023-12-20T05:37:43;15.20;;;8.85;;
80481;SDS011;69797;43.864;21.410;2023-12-20T05:40:11;19.03;;;9.00;;
80481;SDS011;69797;43.864;21.410;2023-12-20T05:42:38;14.43;;;8.57;;
80481;SDS011;69797;43.864;21.410;2023-12-20T05:45:05;14.68;;;8.52;;
80481;SDS011;69797;43.864;21.410;2023-12-20T05:47:32;14.98;;;9.90;;
80481;SDS011;69797;43.864;21.410;2023-12-20T05:49:59;23.75;;;7.88;;
80481;SDS011;69797;43.864;21.410;2023-12-20T05:52:26;14.63;;;7.83;;
80481;SDS011;69797;43.864;21.410;2023-12-20T05:54:52;8.95;;;7.35;;
80481;SDS011;69797;43.864;21.410;2023-12-20T05:57:19;13.55;;;9.35;;
80481;SDS011;69797;43.864;21.410;2023-12-20T05:59:46;15.63;;;9.27;;
80481;SDS011;69797;43.864;21.410;2023-12-20T06:02:13;11.93;;;8.50;;
80481;SDS011;69797;43.864;21.410;2023-12-20T06:04:41;12.00;;;9.63;;
80481;SDS011;69797;43.864;21.410;2023-12-20T06:07:11;13.27;;;9.23;;
80481;SDS011;69797;43.864;21.410;2023-12-20T06:09:38;15.05;;;9.82;;
80481;SDS011;69797;43.864;21.410;2023-12-20T06:12:06;17.45;;;9.75;;
80481;SDS011;69797;43.864;21.410;2023-12-20T06:14:34;19.30;;;9.30;;
80481;SDS011;69797;43.864;21.410;2023-12-20T06:17:01;16.30;;;10.70;;
80481;SDS011;69797;43.864;21.410;2023-12-20T06:19:28;19.65;;;9.80;;
80481;SDS011;69797;43.864;21.410;2023-12-20T06:21:55;25.63;;;13.38;;
80481;SDS011;69797;43.864;21.410;2023-12-20T06:24:22;20.48;;;10.50;;
80481;SDS011;69797;43.864;21.410;2023-12-20T06:26:49;14.77;;;10.43;;
80481;SDS011;69797;43.864;21.410;2023-12-20T06:29:16;20.53;;;12.30;;
80481;SDS011;69797;43.864;21.410;2023-12-20T06:31:43;21.73;;;11.85;;
80481;SDS011;69797;43.864;21.410;2023-12-20T06:34:10;20.73;;;10.50;;
80481;SDS011;69797;43.864;21.410;2023-12-20T06:36:37;126.88;;;31.05;;
80481;SDS011;69797;43.864;21.410;2023-12-20T06:39:03;36.50;;;13.93;;
80481;SDS011;69797;43.864;21.410;2023-12-20T06:41:31;25.50;;;13.60;;
80481;SDS011;69797;43.864;21.410;2023-12-20T06:43:58;21.95;;;13.73;;
80481;SDS011;69797;43.864;21.410;2023-12-20T06:46:24;21.77;;;13.60;;
80481;SDS011;69797;43.864;21.410;2023-12-20T06:48:51;19.63;;;13.88;;
80481;SDS011;69797;43.864;21.410;2023-12-20T06:51:18;30.58;;;14.93;;
80481;SDS011;69797;43.864;21.410;2023-12-20T06:53:46;22.15;;;13.88;;
80481;SDS011;69797;43.864;21.410;2023-12-20T06:56:13;23.63;;;15.43;;
80481;SDS011;69797;43.864;21.410;2023-12-20T06:58:44;30.27;;;18.35;;
80481;SDS011;69797;43.864;21.410;2023-12-20T07:01:11;29.63;;;17.55;;
80481;SDS011;69797;43.864;21.410;2023-12-20T07:03:39;30.70;;;18.80;;
80481;SDS011;69797;43.864;21.410;2023-12-20T07:06:07;36.00;;;20.90;;
80481;SDS011;69797;43.864;21.410;2023-12-20T07:08:34;39.72;;;23.23;;
80481;SDS011;69797;43.864;21.410;2023-12-20T07:11:01;50.83;;;25.67;;
80481;SDS011;69797;43.864;21.410;2023-12-20T07:13:29;45.20;;;23.70;;
80481;SDS011;69797;43.864;21.410;2023-12-20T07:15:56;40.60;;;22.95;;
80481;SDS011;69797;43.864;21.410;2023-12-20T07:18:23;33.83;;;23.08;;
80481;SDS011;69797;43.864;21.410;2023-12-20T07:20:50;47.90;;;23.92;;
80481;SDS011;69797;43.864;21.410;2023-12-20T07:23:17;45.65;;;24.98;;
80481;SDS011;69797;43.864;21.410;2023-12-20T07:25:46;53.00;;;26.85;;
80481;SDS011;69797;43.864;21.410;2023-12-20T07:28:12;55.33;;;28.88;;
80481;SDS011;69797;43.864;21.410;2023-12-20T07:30:39;40.08;;;26.63;;
80481;SDS011;69797;43.864;21.410;2023-12-20T07:33:06;40.83;;;25.23;;
80481;SDS011;69797;43.864;21.410;2023-12-20T07:35:35;48.00;;;27.70;;
80481;SDS011;69797;43.864;21.410;2023-12-20T07:38:03;47.60;;;25.70;;
80481;SDS011;69797;43.864;21.410;2023-12-20T07:40:30;42.17;;;25.92;;
80481;SDS011;69797;43.864;21.410;2023-12-20T07:42:57;51.05;;;24.27;;
80481;SDS011;69797;43.864;21.410;2023-12-20T07:45:24;38.50;;;23.58;;
80481;SDS011;69797;43.864;21.410;2023-12-20T07:47:51;37.53;;;20.70;;
80481;SDS011;69797;43.864;21.410;2023-12-20T07:50:18;34.53;;;20.70;;
80481;SDS011;69797;43.864;21.410;2023-12-20T07:52:45;29.90;;;17.40;;
80481;SDS011;69797;43.864;21.410;2023-12-20T07:55:12;24.50;;;15.98;;
80481;SDS011;69797;43.864;21.410;2023-12-20T07:57:39;38.20;;;24.30;;
80481;SDS011;69797;43.864;21.410;2023-12-20T08:00:05;40.22;;;22.60;;
80481;SDS011;69797;43.864;21.410;2023-12-20T08:02:33;31.83;;;19.75;;
80481;SDS011;69797;43.864;21.410;2023-12-20T08:04:59;31.90;;;18.42;;
80481;SDS011;69797;43.864;21.410;2023-12-20T08:07:26;32.75;;;20.50;;
80481;SDS011;69797;43.864;21.410;2023-12-20T08:09:53;32.15;;;18.45;;
80481;SDS011;69797;43.864;21.410;2023-12-20T08:12:22;34.03;;;20.42;;
80481;SDS011;69797;43.864;21.410;2023-12-20T08:14:49;35.08;;;20.35;;
80481;SDS011;69797;43.864;21.410;2023-12-20T08:17:16;32.17;;;19.75;;
80481;SDS011;69797;43.864;21.410;2023-12-20T08:19:44;31.50;;;18.73;;
80481;SDS011;69797;43.864;21.410;2023-12-20T08:22:11;36.38;;;21.63;;
80481;SDS011;69797;43.864;21.410;2023-12-20T08:24:38;34.58;;;20.25;;
80481;SDS011;69797;43.864;21.410;2023-12-20T08:27:05;38.80;;;20.73;;
80481;SDS011;69797;43.864;21.410;2023-12-20T08:29:31;34.35;;;19.02;;
80481;SDS011;69797;43.864;21.410;2023-12-20T08:31:59;34.25;;;18.90;;
80481;SDS011;69797;43.864;21.410;2023-12-20T08:34:26;44.80;;;23.02;;
80481;SDS011;69797;43.864;21.410;2023-12-20T08:36:53;40.05;;;21.98;;
80481;SDS011;69797;43.864;21.410;2023-12-20T08:39:20;35.80;;;20.77;;
80481;SDS011;69797;43.864;21.410;2023-12-20T08:41:47;37.22;;;20.83;;
80481;SDS011;69797;43.864;21.410;2023-12-20T08:44:14;32.85;;;19.98;;
80481;SDS011;69797;43.864;21.410;2023-12-20T08:46:40;34.45;;;20.88;;
80481;SDS011;69797;43.864;21.410;2023-12-20T08:49:07;35.70;;;22.35;;
80481;SDS011;69797;43.864;21.410;2023-12-20T08:51:36;35.80;;;22.13;;
80481;SDS011;69797;43.864;21.410;2023-12-20T08:54:06;37.45;;;21.75;;
80481;SDS011;69797;43.864;21.410;2023-12-20T08:56:34;37.53;;;23.27;;
80481;SDS011;69797;43.864;21.410;2023-12-20T08:59:01;44.80;;;23.63;;
80481;SDS011;69797;43.864;21.410;2023-12-20T09:01:28;33.15;;;20.95;;
80481;SDS011;69797;43.864;21.410;2023-12-20T09:03:55;33.70;;;20.40;;
80481;SDS011;69797;43.864;21.410;2023-12-20T09:06:22;34.47;;;20.45;;
80481;SDS011;69797;43.864;21.410;2023-12-20T09:08:48;38.30;;;21.77;;
80481;SDS011;69797;43.864;21.410;2023-12-20T09:11:15;26.00;;;15.00;;
80481;SDS011;69797;43.864;21.410;2023-12-20T09:13:44;29.38;;;19.48;;
80481;SDS011;69797;43.864;21.410;2023-12-20T09:16:11;36.75;;;21.08;;
80481;SDS011;69797;43.864;21.410;2023-12-20T09:18:39;31.88;;;18.75;;
80481;SDS011;69797;43.864;21.410;2023-12-20T09:21:06;33.05;;;20.30;;
80481;SDS011;69797;43.864;21.410;2023-12-20T09:23:32;30.52;;;19.13;;
80481;SDS011;69797;43.864;21.410;2023-12-20T09:25:59;29.27;;;16.92;;
80481;SDS011;69797;43.864;21.410;2023-12-20T09:28:26;27.70;;;15.63;;
80481;SDS011;69797;43.864;21.410;2023-12-20T09:30:53;27.98;;;17.70;;
80481;SDS011;69797;43.864;21.410;2023-12-20T09:33:20;26.60;;;16.92;;
80481;SDS011;69797;43.864;21.410;2023-12-20T09:35:47;24.63;;;15.40;;
80481;SDS011;69797;43.864;21.410;2023-12-20T09:38:14;23.45;;;14.93;;
80481;SDS011;69797;43.864;21.410;2023-12-20T09:40:42;28.50;;;15.40;;
80481;SDS011;69797;43.864;21.410;2023-12-20T09:43:10;26.55;;;15.77;;
80481;SDS011;69797;43.864;21.410;2023-12-20T09:45:40;23.25;;;13.98;;
80481;SDS011;69797;43.864;21.410;2023-12-20T09:48:08;20.13;;;12.05;;
80481;SDS011;69797;43.864;21.410;2023-12-20T09:50:38;21.60;;;13.13;;
80481;SDS011;69797;43.864;21.410;2023-12-20T09:53:05;25.13;;;13.75;;
80481;SDS011;69797;43.864;21.410;2023-12-20T09:55:36;21.33;;;12.00;;
80481;SDS011;69797;43.864;21.410;2023-12-20T09:58:03;19.65;;;11.13;;
80481;SDS011;69797;43.864;21.410;2023-12-20T10:00:30;18.23;;;10.52;;
80481;SDS011;69797;43.864;21.410;2023-12-20T10:02:57;21.15;;;12.57;;
80481;SDS011;69797;43.864;21.410;2023-12-20T10:05:29;18.67;;;11.90;;
80481;SDS011;69797;43.864;21.410;2023-12-20T10:07:57;21.02;;;11.80;;
80481;SDS011;69797;43.864;21.410;2023-12-20T10:10:26;19.90;;;12.57;;
80481;SDS011;69797;43.864;21.410;2023-12-20T10:13:09;18.67;;;12.45;;
80481;SDS011;69797;43.864;21.410;2023-12-20T10:15:37;23.50;;;11.13;;
80481;SDS011;69797;43.864;21.410;2023-12-20T10:18:05;18.88;;;12.25;;
80481;SDS011;69797;43.864;21.410;2023-12-20T10:20:33;18.92;;;11.07;;
80481;SDS011;69797;43.864;21.410;2023-12-20T10:23:00;17.20;;;11.77;;
80481;SDS011;69797;43.864;21.410;2023-12-20T10:25:28;19.17;;;11.90;;
80481;SDS011;69797;43.864;21.410;2023-12-20T10:28:08;21.05;;;11.00;;
80481;SDS011;69797;43.864;21.410;2023-12-20T10:30:39;20.40;;;11.95;;
80481;SDS011;69797;43.864;21.410;2023-12-20T10:33:07;17.63;;;12.20;;
80481;SDS011;69797;43.864;21.410;2023-12-20T10:35:35;24.23;;;12.57;;
80481;SDS011;69797;43.864;21.410;2023-12-20T10:38:05;20.17;;;11.27;;
80481;SDS011;69797;43.864;21.410;2023-12-20T10:40:36;16.35;;;10.10;;
80481;SDS011;69797;43.864;21.410;2023-12-20T10:43:04;18.92;;;10.68;;
80481;SDS011;69797;43.864;21.410;2023-12-20T10:45:32;19.63;;;11.23;;
80481;SDS011;69797;43.864;21.410;2023-12-20T10:47:59;17.65;;;10.25;;
80481;SDS011;69797;43.864;21.410;2023-12-20T10:50:28;21.60;;;11.30;;
80481;SDS011;69797;43.864;21.410;2023-12-20T10:52:57;23.23;;;10.93;;
80481;SDS011;69797;43.864;21.410;2023-12-20T10:55:25;19.33;;;11.75;;
80481;SDS011;69797;43.864;21.410;2023-12-20T10:58:08;19.17;;;10.45;;
80481;SDS011;69797;43.864;21.410;2023-12-20T11:00:39;18.85;;;11.60;;
80481;SDS011;69797;43.864;21.410;2023-12-20T11:03:10;21.98;;;12.63;;
80481;SDS011;69797;43.864;21.410;2023-12-20T11:08:22;21.05;;;12.60;;
80481;SDS011;69797;43.864;21.410;2023-12-20T11:11:14;19.63;;;12.13;;
80481;SDS011;69797;43.864;21.410;2023-12-20T11:14:13;19.70;;;12.70;;
80481;SDS011;69797;43.864;21.410;2023-12-20T11:16:45;17.00;;;11.48;;
80481;SDS011;69797;43.864;21.410;2023-12-20T11:19:20;23.13;;;11.70;;
80481;SDS011;69797;43.864;21.410;2023-12-20T11:21:47;21.95;;;12.43;;
80481;SDS011;69797;43.864;21.410;2023-12-20T11:24:15;18.33;;;11.65;;
80481;SDS011;69797;43.864;21.410;2023-12-20T11:26:46;17.50;;;10.98;;
80481;SDS011;69797;43.864;21.410;2023-12-20T11:29:34;20.75;;;11.65;;
80481;SDS011;69797;43.864;21.410;2023-12-20T11:32:03;23.35;;;12.07;;
80481;SDS011;69797;43.864;21.410;2023-12-20T11:34:53;19.10;;;10.82;;
80481;SDS011;69797;43.864;21.410;2023-12-20T11:37:41;22.98;;;12.30;;
80481;SDS011;69797;43.864;21.410;2023-12-20T11:40:12;16.95;;;10.90;;
80481;SDS011;69797;43.864;21.410;2023-12-20T11:42:42;21.02;;;10.85;;
80481;SDS011;69797;43.864;21.410;2023-12-20T11:45:11;21.55;;;10.80;;
80481;SDS011;69797;43.864;21.410;2023-12-20T11:47:44;17.92;;;10.93;;
80481;SDS011;69797;43.864;21.410;2023-12-20T11:50:14;16.60;;;10.65;;
80481;SDS011;69797;43.864;21.410;2023-12-20T11:52:41;21.60;;;12.02;;
80481;SDS011;69797;43.864;21.410;2023-12-20T11:55:08;20.70;;;10.95;;
80481;SDS011;69797;43.864;21.410;2023-12-20T11:57:35;18.17;;;11.02;;
80481;SDS011;69797;43.864;21.410;2023-12-20T12:00:03;22.20;;;11.32;;
80481;SDS011;69797;43.864;21.410;2023-12-20T12:02:30;19.80;;;11.45;;
80481;SDS011;69797;43.864;21.410;2023-12-20T12:04:57;21.25;;;11.57;;
80481;SDS011;69797;43.864;21.410;2023-12-20T12:07:26;18.67;;;12.05;;
80481;SDS011;69797;43.864;21.410;2023-12-20T12:09:52;22.08;;;12.18;;
80481;SDS011;69797;43.864;21.410;2023-12-20T12:12:19;20.30;;;11.25;;
80481;SDS011;69797;43.864;21.410;2023-12-20T12:14:47;19.27;;;11.82;;
80481;SDS011;69797;43.864;21.410;2023-12-20T12:17:14;21.48;;;11.20;;
80481;SDS011;69797;43.864;21.410;2023-12-20T12:19:42;23.63;;;13.48;;
80481;SDS011;69797;43.864;21.410;2023-12-20T12:22:11;24.35;;;13.32;;
80481;SDS011;69797;43.864;21.410;2023-12-20T12:24:42;24.80;;;13.48;;
80481;SDS011;69797;43.864;21.410;2023-12-20T12:27:10;27.50;;;14.60;;
80481;SDS011;69797;43.864;21.410;2023-12-20T12:29:38;31.98;;;21.63;;
80481;SDS011;69797;43.864;21.410;2023-12-20T12:32:06;28.00;;;16.88;;
80481;SDS011;69797;43.864;21.410;2023-12-20T12:34:34;29.13;;;16.70;;
80481;SDS011;69797;43.864;21.410;2023-12-20T12:37:03;34.80;;;19.52;;
80481;SDS011;69797;43.864;21.410;2023-12-20T12:39:30;33.13;;;19.20;;
80481;SDS011;69797;43.864;21.410;2023-12-20T12:41:57;31.63;;;17.50;;
80481;SDS011;69797;43.864;21.410;2023-12-20T12:44:24;33.65;;;21.20;;
80481;SDS011;69797;43.864;21.410;2023-12-20T12:46:51;41.97;;;23.40;;
80481;SDS011;69797;43.864;21.410;2023-12-20T12:49:20;41.75;;;23.48;;
80481;SDS011;69797;43.864;21.410;2023-12-20T12:51:48;42.60;;;24.15;;
80481;SDS011;69797;43.864;21.410;2023-12-20T12:54:15;45.20;;;24.75;;
80481;SDS011;69797;43.864;21.410;2023-12-20T12:56:44;39.95;;;24.45;;
80481;SDS011;69797;43.864;21.410;2023-12-20T12:59:11;43.55;;;25.30;;
80481;SDS011;69797;43.864;21.410;2023-12-20T13:01:38;37.05;;;20.83;;
80481;SDS011;69797;43.864;21.410;2023-12-20T13:04:06;44.72;;;27.55;;
80481;SDS011;69797;43.864;21.410;2023-12-20T13:06:37;45.05;;;29.00;;
80481;SDS011;69797;43.864;21.410;2023-12-20T13:09:04;44.90;;;25.15;;
80481;SDS011;69797;43.864;21.410;2023-12-20T13:11:31;45.22;;;27.85;;
80481;SDS011;69797;43.864;21.410;2023-12-20T13:13:58;39.85;;;25.85;;
80481;SDS011;69797;43.864;21.410;2023-12-20T13:16:26;50.50;;;28.38;;
80481;SDS011;69797;43.864;21.410;2023-12-20T13:18:53;50.95;;;27.02;;
80481;SDS011;69797;43.864;21.410;2023-12-20T13:21:20;44.63;;;25.08;;
80481;SDS011;69797;43.864;21.410;2023-12-20T13:23:46;43.10;;;25.85;;
80481;SDS011;69797;43.864;21.410;2023-12-20T13:26:14;47.53;;;28.13;;
80481;SDS011;69797;43.864;21.410;2023-12-20T13:28:41;43.83;;;27.20;;
80481;SDS011;69797;43.864;21.410;2023-12-20T13:31:08;28.15;;;16.55;;
80481;SDS011;69797;43.864;21.410;2023-12-20T13:33:35;45.83;;;24.55;;
80481;SDS011;69797;43.864;21.410;2023-12-20T13:36:02;44.83;;;22.60;;
80481;SDS011;69797;43.864;21.410;2023-12-20T13:38:33;49.10;;;25.40;;
80481;SDS011;69797;43.864;21.410;2023-12-20T13:41:00;49.60;;;26.85;;
80481;SDS011;69797;43.864;21.410;2023-12-20T13:43:26;51.13;;;27.00;;
80481;SDS011;69797;43.864;21.410;2023-12-20T13:45:53;47.53;;;23.73;;
80481;SDS011;69797;43.864;21.410;2023-12-20T13:48:20;47.10;;;24.48;;
80481;SDS011;69797;43.864;21.410;2023-12-20T13:50:47;41.15;;;23.52;;
80481;SDS011;69797;43.864;21.410;2023-12-20T13:53:14;47.08;;;24.65;;
80481;SDS011;69797;43.864;21.410;2023-12-20T13:55:40;43.03;;;22.27;;
80481;SDS011;69797;43.864;21.410;2023-12-20T13:58:08;38.08;;;19.60;;
80481;SDS011;69797;43.864;21.410;2023-12-20T14:00:36;30.55;;;15.43;;
80481;SDS011;69797;43.864;21.410;2023-12-20T14:03:03;29.65;;;14.98;;
80481;SDS011;69797;43.864;21.410;2023-12-20T14:05:30;27.38;;;14.60;;
80481;SDS011;69797;43.864;21.410;2023-12-20T14:07:57;23.10;;;13.40;;
80481;SDS011;69797;43.864;21.410;2023-12-20T14:10:24;36.13;;;18.05;;
80481;SDS011;69797;43.864;21.410;2023-12-20T14:12:55;33.35;;;16.92;;
80481;SDS011;69797;43.864;21.410;2023-12-20T14:15:22;33.55;;;17.20;;
80481;SDS011;69797;43.864;21.410;2023-12-20T14:17:52;41.58;;;22.40;;